Time;durP1;ratioP1;P1;durP2;ratioP2;P2;SDS_P1;SDS_P2;PMS_P1;PMS_P2;Temp;Humidity;BMP_temperature;BMP_pressure;BME280_temperature;BME280_humidity;BME280_pressure;Samples;Min_cycle;Max_cycle;Signal;HPM_P1;HPM_P2
2024/04/10 00:01:00;;;;;;;15.35;5.05;;;;;;;;;;5477224;26;20087;-72
2024/04/10 00:03:28;;;;;;;16.10;4.85;;;;;;;;;;5487268;26;19997;-72
2024/04/10 00:06:03;;;;;;;17.75;4.78;;;;;;;;;;5450723;26;20002;-74
2024/04/10 00:08:30;;;;;;;16.98;4.45;;;;;;;;;;5451302;26;20002;-73
2024/04/10 00:10:56;;;;;;;11.90;4.70;;;;;;;;;;5451487;26;19999;-75
2024/04/10 00:14:44;;;;;;;17.85;5.13;;;;;;;;;;5469389;26;20356;-73
2024/04/10 00:17:10;;;;;;;10.63;4.63;;;;;;;;;;5433152;26;20031;-73
2024/04/10 00:19:36;;;;;;;15.02;4.97;;;;;;;;;;5433889;26;20076;-74
2024/04/10 00:22:07;;;;;;;11.30;4.65;;;;;;;;;;5431075;26;20083;-74
2024/04/10 00:24:33;;;;;;;15.48;5.03;;;;;;;;;;5429632;26;20003;-72
2024/04/10 00:26:59;;;;;;;11.85;5.20;;;;;;;;;;5434201;26;20000;-73
2024/04/10 00:29:25;;;;;;;15.25;6.00;;;;;;;;;;5432725;26;20347;-72
2024/04/10 00:31:54;;;;;;;15.48;5.80;;;435.40;2355.20;;;;;;5433898;26;20003;-72
2024/04/10 00:34:19;;;;;;;17.70;6.25;;;410.50;2355.20;;;;;;5427391;26;20072;-71
2024/04/10 00:36:45;;;;;;;15.95;5.90;;;410.50;2355.20;;;;;;5406655;26;20011;-71
2024/04/10 00:39:11;;;;;;;12.80;5.68;;;410.40;2355.20;;;;;;5432470;26;20072;-71
2024/04/10 00:41:38;;;;;;;10.95;5.70;;;410.40;2355.20;;;;;;5432251;26;20014;-73
2024/04/10 00:44:04;;;;;;;14.50;5.60;;;410.40;2355.20;;;;;;5410878;26;20023;-73
2024/04/10 00:46:32;;;;;;;14.48;5.05;;;410.40;2355.20;;;;;;5397684;26;20011;-72
2024/04/10 00:48:58;;;;;;;10.32;5.57;;;410.40;2355.20;;;;;;5397067;26;20002;-72
2024/04/10 00:51:24;;;;;;;14.73;5.50;;;410.40;2355.20;;;;;;5395089;26;20014;-70
2024/04/10 00:53:54;;;;;;;11.20;5.50;;;410.40;2355.20;;;;;;5407679;26;20007;-73
2024/04/10 00:56:20;;;;;;;10.98;5.88;;;410.50;2355.20;;;;;;5433773;26;19999;-73
2024/04/10 00:58:47;;;;;;;15.55;5.88;;;410.30;2355.20;;;;;;5433384;26;20004;-73
2024/04/10 01:01:14;;;;;;;14.90;5.80;;;410.20;2355.20;;;;;;5432764;26;20045;-74
2024/04/10 01:03:40;;;;;;;12.07;5.90;;;410.20;2355.20;;;;;;5433113;26;20318;-74
2024/04/10 01:06:10;;;;;;;12.73;5.30;;;410.10;2355.20;;;;;;5433303;26;20672;-74
2024/04/10 01:08:38;;;;;;;11.95;5.35;;;;;;;;;;5401905;26;20051;-73
2024/04/10 01:11:06;;;;;;;13.88;5.63;;;410.10;2355.20;;;;;;5410747;26;20494;-73
2024/04/10 01:13:33;;;;;;;11.20;5.13;;;410.10;2355.20;;;;;;5404447;26;20003;-70
2024/04/10 01:15:59;;;;;;;16.00;4.90;;;409.90;2355.20;;;;;;5395505;26;20015;-74
2024/04/10 01:18:25;;;;;;;10.40;4.72;;;409.90;2355.20;;;;;;5395899;26;20366;-72
2024/04/10 01:20:51;;;;;;;11.45;4.80;;;409.90;2355.20;;;;;;5396720;26;20019;-72
2024/04/10 01:23:17;;;;;;;9.60;4.47;;;409.90;2355.20;;;;;;5397194;26;20455;-74
2024/04/10 01:25:43;;;;;;;12.88;4.95;;;409.90;2355.20;;;;;;5381410;26;19996;-73
2024/04/10 01:28:09;;;;;;;13.32;5.03;;;409.90;2355.20;;;;;;5380568;26;20076;-74
2024/04/10 01:30:35;;;;;;;16.85;4.93;;;409.90;2355.20;;;;;;5397378;26;20758;-72
2024/04/10 01:33:02;;;;;;;14.07;4.57;;;409.90;2355.20;;;;;;5417030;26;20766;-74
2024/04/10 01:35:27;;;;;;;9.48;4.25;;;409.80;2355.20;;;;;;5416640;26;19999;-72
2024/04/10 01:37:53;;;;;;;9.85;4.05;;;409.80;2355.20;;;;;;5416359;26;20067;-70
2024/04/10 01:40:21;;;;;;;9.75;3.92;;;409.90;2355.20;;;;;;5416780;26;20000;-72
2024/04/10 01:42:47;;;;;;;12.88;5.32;;;409.70;2355.20;;;;;;5417895;26;20008;-73
2024/04/10 01:45:13;;;;;;;11.73;4.47;;;;;;;;;;5416489;26;20006;-71
2024/04/10 01:47:39;;;;;;;12.35;4.65;;;;;;;;;;5413101;26;20466;-72
2024/04/10 01:50:05;;;;;;;11.00;4.30;;;;;;;;;;5378335;26;20004;-72
2024/04/10 01:52:32;;;;;;;14.63;4.65;;;;;;;;;;5380327;26;20004;-73
2024/04/10 01:54:58;;;;;;;11.68;4.00;;;;;;;;;;5397388;26;20024;-74
2024/04/10 01:57:24;;;;;;;8.88;4.32;;;;;;;;;;5416398;26;20011;-74
2024/04/10 01:59:51;;;;;;;13.45;4.65;;;;;;;;;;5417090;26;19999;-72
2024/04/10 02:02:18;;;;;;;11.00;4.68;;;409.80;2355.20;;;;;;5415360;26;20402;-72
2024/04/10 02:04:45;;;;;;;9.98;4.57;;;409.60;2355.20;;;;;;5416228;26;20017;-74
2024/04/10 02:07:12;;;;;;;15.07;4.90;;;;;;;;;;5395835;26;20012;-73
2024/04/10 02:09:38;;;;;;;11.82;4.32;;;;;;;;;;5377897;26;20000;-73
2024/04/10 02:12:04;;;;;;;10.85;4.70;;;;;;;;;;5379736;26;20043;-74
2024/04/10 02:14:35;;;;;;;8.32;4.60;;;;;;;;;;5379153;26;20004;-74
2024/04/10 02:17:01;;;;;;;12.70;5.10;;;;;;;;;;5379938;26;20075;-74
2024/04/10 02:19:27;;;;;;;13.15;5.18;;;;;;;;;;5379475;26;20001;-72
2024/04/10 02:21:57;;;;;;;7.32;4.63;;;;;;;;;;5381238;26;20000;-75
2024/04/10 02:24:24;;;;;;;9.65;4.90;;;;;;;;;;5381410;26;20019;-72
2024/04/10 02:26:50;;;;;;;9.93;5.07;;;;;;;;;;5395909;26;20004;-74
2024/04/10 02:29:17;;;;;;;10.07;5.00;;;;;;;;;;5385811;26;20471;-74
2024/04/10 02:31:43;;;;;;;10.32;4.85;;;;;;;;;;5381102;26;20000;-74
2024/04/10 02:34:09;;;;;;;7.93;4.78;;;;;;;;;;5383421;26;20062;-73
2024/04/10 02:36:35;;;;;;;8.52;4.97;;;;;;;;;;5415321;26;19995;-74
2024/04/10 02:39:02;;;;;;;14.38;5.43;;;;;;;;;;5416584;26;20003;-74
2024/04/10 02:41:28;;;;;;;12.85;5.30;;;;;;;;;;5415623;26;20485;-74
2024/04/10 02:43:54;;;;;;;10.85;5.07;;;;;;;;;;5416487;26;20003;-74
2024/04/10 02:46:21;;;;;;;11.25;5.28;;;;;;;;;;5390918;26;20004;-74
2024/04/10 02:48:47;;;;;;;9.13;4.82;;;;;;;;;;5409976;26;20075;-72
2024/04/10 02:51:13;;;;;;;11.98;4.95;;;;;;;;;;5415994;26;20011;-74
2024/04/10 02:53:39;;;;;;;11.95;5.40;;;;;;;;;;5414243;26;20349;-72
2024/04/10 02:56:05;;;;;;;14.70;5.70;;;;;;;;;;5386881;26;20023;-72
2024/04/10 02:58:31;;;;;;;13.98;6.13;;;;;;;;;;5381148;26;20000;-75
2024/04/10 03:00:58;;;;;;;14.85;6.47;;;;;;;;;;5414894;26;19999;-72
2024/04/10 03:03:25;;;;;;;13.32;5.97;;;;;;;;;;5408082;26;20003;-72
2024/04/10 03:06:02;;;;;;;14.30;6.18;;;;;;;;;;5408350;26;20042;-73
2024/04/10 03:08:29;;;;;;;16.33;7.43;;;;;;;;;;5380923;26;20088;-74
2024/04/10 03:10:55;;;;;;;13.90;7.05;;;;;;;;;;5378563;26;20008;-72
2024/04/10 03:13:21;;;;;;;16.35;7.82;;;;;;;;;;5379180;26;20004;-69
2024/04/10 03:15:47;;;;;;;13.35;7.43;;;;;;;;;;5413665;26;20453;-70
2024/04/10 03:18:14;;;;;;;18.60;7.93;;;;;;;;;;5393859;26;20754;-70
2024/04/10 03:20:40;;;;;;;15.27;7.68;;;;;;;;;;5378928;26;19996;-71
2024/04/10 03:23:06;;;;;;;13.82;7.35;;;;;;;;;;5377516;26;20000;-71
2024/04/10 03:25:33;;;;;;;14.23;7.15;;;;;;;;;;5385520;26;20731;-74
2024/04/10 03:27:59;;;;;;;12.20;7.28;;;;;;;;;;5389196;26;20054;-73
2024/04/10 03:30:28;;;;;;;10.93;6.53;;;;;;;;;;5380204;26;19996;-72
2024/04/10 03:32:54;;;;;;;17.05;7.22;;;;;;;;;;5380050;26;20006;-73
2024/04/10 03:35:20;;;;;;;19.05;7.10;;;;;;;;;;5379565;26;20048;-73
2024/04/10 03:37:46;;;;;;;17.00;6.10;;;384.00;2329.60;;;;;;5388688;26;20002;-72
2024/04/10 03:40:12;;;;;;;12.07;5.05;;;359.10;2329.60;;;;;;5390654;26;20004;-74
2024/04/10 03:42:42;;;;;;;15.88;4.97;;;359.00;2329.60;;;;;;5380962;26;20081;-73
2024/04/10 03:45:08;;;;;;;13.60;4.80;;;359.00;2329.60;;;;;;5415992;26;20042;-73
2024/04/10 03:47:34;;;;;;;10.57;4.70;;;359.00;2329.60;;;;;;5395979;26;20016;-73
2024/04/10 03:50:04;;;;;;;17.58;5.30;;;358.90;2329.60;;;;;;5414792;26;20073;-71
2024/04/10 03:52:32;;;;;;;12.60;5.05;;;358.90;2329.60;;;;;;5407475;26;20023;-73
2024/04/10 03:54:57;;;;;;;10.50;5.00;;;358.90;2329.60;;;;;;5379195;26;20000;-73
2024/04/10 03:57:23;;;;;;;10.60;5.20;;;358.90;2329.60;;;;;;5379575;26;20446;-74
2024/04/10 03:59:49;;;;;;;12.00;5.40;;;358.90;2329.60;;;;;;5380157;26;20012;-73
2024/04/10 04:02:18;;;;;;;9.10;5.18;;;358.90;2329.60;;;;;;5379196;26;20000;-72
2024/04/10 04:04:44;;;;;;;8.70;5.55;;;358.90;2329.60;;;;;;5393297;26;19996;-71
2024/04/10 04:07:10;;;;;;;13.07;5.45;;;358.90;2329.60;;;;;;5414642;26;20003;-73
2024/04/10 04:09:37;;;;;;;14.07;5.82;;;358.80;2329.60;;;;;;5411920;26;20347;-73
2024/04/10 04:12:03;;;;;;;15.48;5.72;;;358.80;2329.60;;;;;;5414924;26;20015;-73
2024/04/10 04:14:30;;;;;;;11.77;6.00;;;358.90;2329.60;;;;;;5405838;26;20453;-73
2024/04/10 04:16:56;;;;;;;13.45;5.45;;;358.90;2329.60;;;;;;5406819;26;20039;-74
2024/04/10 04:19:25;;;;;;;11.73;6.10;;;358.90;2329.60;;;;;;5411358;26;20102;-72
2024/04/10 04:21:51;;;;;;;11.82;6.18;;;358.90;2329.60;;;;;;5396922;26;20464;-74
2024/04/10 04:24:18;;;;;;;14.63;5.90;;;358.80;2329.60;;;;;;5414624;26;20007;-74
2024/04/10 04:26:45;;;;;;;10.38;6.40;;;358.70;2329.60;;;;;;5384871;26;20000;-73
2024/04/10 04:29:11;;;;;;;11.32;5.90;;;358.70;2329.60;;;;;;5379079;26;20036;-73
2024/04/10 04:31:37;;;;;;;13.15;6.07;;;358.70;2329.60;;;;;;5384200;26;20016;-73
2024/04/10 04:34:12;;;;;;;11.55;6.40;;;358.70;2329.60;;;;;;5383787;26;20015;-73
2024/04/10 04:36:39;;;;;;;13.38;6.38;;;358.80;2329.60;;;;;;5378904;26;20443;-74
2024/04/10 04:39:07;;;;;;;15.00;6.50;;;358.80;2329.60;;;;;;5382663;26;20036;-72
2024/04/10 04:41:33;;;;;;;11.50;6.30;;;358.90;2329.60;;;;;;5377667;26;20023;-72
2024/04/10 04:43:59;;;;;;;12.35;6.32;;;358.90;2329.60;;;;;;5387307;26;20017;-72
2024/04/10 04:46:25;;;;;;;15.38;6.50;;;358.90;2329.60;;;;;;5378689;26;20074;-73
2024/04/10 04:48:51;;;;;;;12.73;5.35;;;358.90;2329.60;;;;;;5379292;26;20004;-73
2024/04/10 04:51:16;;;;;;;14.13;4.78;;;358.90;2329.60;;;;;;5406671;26;20007;-72
2024/04/10 04:53:42;;;;;;;9.85;4.53;;;358.90;2329.60;;;;;;5413366;26;19999;-71
2024/04/10 04:56:08;;;;;;;8.75;4.00;;;358.80;2329.60;;;;;;5404149;26;20003;-71
2024/04/10 04:58:34;;;;;;;8.65;3.90;;;359.10;2329.60;;;;;;5376445;26;20000;-71
2024/04/10 05:01:00;;;;;;;9.88;4.50;;;359.10;2329.60;;;;;;5380860;26;20342;-72
2024/04/10 05:06:10;;;;;;;7.07;3.85;;;359.30;2329.60;;;;;;5379810;26;20073;-71
2024/04/10 05:08:37;;;;;;;12.98;3.95;;;359.30;2329.60;;;;;;5391447;26;20014;-71
2024/04/10 05:11:07;;;;;;;11.00;3.88;;;384.00;2329.60;;;;;;5401725;26;19996;-73
2024/04/10 05:13:32;;;;;;;8.45;4.38;;;384.00;2329.60;;;;;;5381973;26;20058;-74
2024/04/10 05:15:58;;;;;;;9.10;3.63;;;384.10;2329.60;;;;;;5399708;26;20345;-71
2024/04/10 05:18:24;;;;;;;14.45;4.15;;;359.30;2329.60;;;;;;5381277;26;20080;-70
2024/04/10 05:20:51;;;;;;;8.25;3.60;;;384.20;2329.60;;;;;;5392148;26;20008;-71
2024/04/10 05:23:16;;;;;;;13.40;3.80;;;384.30;2329.60;;;;;;5394950;26;20446;-70
2024/04/10 05:25:49;;;;;;;14.88;4.05;;;384.70;2329.60;;;;;;5387931;26;19999;-74
2024/04/10 05:28:18;;;;;;;10.60;4.13;;;384.80;2329.60;;;;;;5392498;26;20003;-72
2024/04/10 05:30:43;;;;;;;13.23;3.58;;;384.40;2329.60;;;;;;5393584;26;20405;-69
2024/04/10 05:33:09;;;;;;;10.15;3.47;;;384.50;2329.60;;;;;;5392417;26;20043;-74
2024/04/10 05:35:35;;;;;;;8.38;3.80;;;384.30;2329.60;;;;;;5388080;26;20015;-72
2024/04/10 05:38:03;;;;;;;14.38;3.45;;;384.60;2329.60;;;;;;5388650;26;20322;-72
2024/04/10 05:40:29;;;;;;;8.07;3.17;;;384.60;2329.60;;;;;;5389935;26;20000;-75
2024/04/10 05:42:55;;;;;;;9.95;3.45;;;384.70;2329.60;;;;;;5385940;26;20011;-73
2024/04/10 05:45:20;;;;;;;11.60;3.60;;;384.80;2329.60;;;;;;5382633;26;20100;-71
2024/04/10 05:47:50;;;;;;;8.02;3.40;;;;;;;;;;5391832;26;20035;-73
2024/04/10 05:50:16;;;;;;;6.30;3.40;;;;;;;;;;5391621;26;20014;-73
2024/04/10 05:52:43;;;;;;;9.95;3.03;;;;;;;;;;5387755;26;20014;-72
2024/04/10 05:55:10;;;;;;;9.77;2.95;;;;;;;;;;5400202;26;20007;-74
2024/04/10 05:57:36;;;;;;;10.00;3.03;;;;;;;;;;5402241;26;20040;-73
2024/04/10 06:00:03;;;;;;;7.75;2.88;;;;;;;;;;5383151;26;20497;-74
2024/04/10 06:02:30;;;;;;;9.07;3.45;;;;;;;;;;5397518;26;20097;-73
2024/04/10 06:04:59;;;;;;;8.88;3.03;;;435.40;2355.20;;;;;;5379643;26;20004;-71
2024/04/10 06:07:25;;;;;;;5.90;2.45;;;435.20;2355.20;;;;;;5382844;26;20755;-72
2024/04/10 06:09:55;;;;;;;7.47;2.40;;;435.40;2355.20;;;;;;5384077;26;20016;-73
2024/04/10 06:12:22;;;;;;;8.82;2.75;;;435.20;2355.20;;;;;;5381363;26;20008;-72
2024/04/10 06:14:54;;;;;;;11.63;2.50;;;410.50;2355.20;;;;;;5396946;26;20069;-72
2024/04/10 06:17:21;;;;;;;9.55;2.88;;;410.50;2355.20;;;;;;5383645;26;20012;-71
2024/04/10 06:19:48;;;;;;;9.35;2.30;;;435.20;2355.20;;;;;;5378837;26;20008;-74
2024/04/10 06:22:14;;;;;;;11.02;2.55;;;435.60;2355.20;;;;;;5389964;26;20004;-71
2024/04/10 06:24:42;;;;;;;9.80;2.17;;;;;;;;;;5388459;26;20377;-72
2024/04/10 06:27:09;;;;;;;8.88;2.40;;;460.80;2380.80;;;;;;5415672;26;20334;-74
2024/04/10 06:29:35;;;;;;;11.32;2.25;;;436.00;2355.20;;;;;;5410800;26;20003;-74
2024/04/10 06:32:00;;;;;;;7.75;2.47;;;460.80;2380.80;;;;;;5392577;26;20076;-71
2024/04/10 06:34:26;;;;;;;8.63;2.30;;;461.30;2380.80;;;;;;5385123;26;20003;-72
2024/04/10 06:36:52;;;;;;;10.68;2.15;;;487.10;2304.00;;;;;;5386005;26;20078;-72
2024/04/10 06:39:18;;;;;;;8.32;2.03;;;487.20;2278.40;;;;;;5388880;26;20015;-72
2024/04/10 06:41:44;;;;;;;9.07;2.10;;;589.10;1868.80;;;;;;5380383;26;20044;-71
2024/04/10 06:44:09;;;;;;;7.68;2.20;;;589.10;1817.60;;;;;;5377393;26;20073;-71
2024/04/10 06:46:35;;;;;;;10.63;2.08;;;614.50;1766.40;;;;;;5381236;26;20000;-71
2024/04/10 06:49:01;;;;;;;5.95;2.00;;;615.00;1715.20;;;;;;5394165;26;20039;-71
2024/04/10 06:51:26;;;;;;;12.57;2.53;;;640.60;1587.20;;;;;;5380571;26;20012;-71
2024/04/10 06:53:52;;;;;;;10.15;2.17;;;691.30;1484.80;;;;;;5395525;26;20010;-72
2024/04/10 06:56:18;;;;;;;7.20;2.15;;;717.30;1382.40;;;;;;5415056;26;20011;-72
2024/04/10 06:58:44;;;;;;;8.77;2.10;;;;;;;;;;5415598;26;20010;-71
2024/04/10 07:01:10;;;;;;;8.93;2.13;;;742.40;1331.20;;;;;;5392396;26;19996;-72
2024/04/10 07:03:38;;;;;;;9.02;2.00;;;717.60;1331.20;;;;;;5415791;26;19999;-72
2024/04/10 07:06:06;;;;;;;9.05;1.67;;;691.50;1356.80;;;;;;5414863;26;19999;-72
2024/04/10 07:08:39;;;;;;;9.15;1.77;;;640.00;1510.40;;;;;;5384774;26;20095;-69
2024/04/10 07:11:09;;;;;;;14.30;2.25;;;589.60;1638.40;;;;;;5380837;26;20074;-69
2024/04/10 07:13:35;;;;;;;13.35;2.25;;;563.70;1715.20;;;;;;5390155;26;20628;-70
2024/04/10 07:16:03;;;;;;;13.45;2.15;;;538.30;1740.80;;;;;;5377655;26;20000;-71
2024/04/10 07:18:30;;;;;;;10.05;2.10;;;;;;;;;;5377328;26;20070;-71
2024/04/10 07:21:02;;;;;;;6.82;2.10;;;;;;;;;;5394454;26;20638;-69
2024/04/10 07:23:29;;;;;;;17.02;2.40;;;;;;;;;;5379415;26;20000;-71
2024/04/10 07:25:55;;;;;;;12.40;1.88;;;537.70;1868.80;;;;;;5385479;26;20493;-72
2024/04/10 07:28:25;;;;;;;6.35;2.00;;;;;;;;;;5380937;26;19996;-69
2024/04/10 07:30:52;;;;;;;10.13;2.15;;;;;;;;;;5382225;26;20303;-71
2024/04/10 07:33:20;;;;;;;10.90;1.90;;;;;;;;;;5387074;26;20439;-70
2024/04/10 07:35:46;;;;;;;7.45;1.92;;;537.80;1843.20;;;;;;5383574;26;20276;-71
2024/04/10 07:38:11;;;;;;;9.85;2.00;;;512.60;1843.20;;;;;;5382561;26;20011;-73
2024/04/10 07:40:37;;;;;;;12.02;2.22;;;512.30;1868.80;;;;;;5382105;26;20430;-70
2024/04/10 07:43:04;;;;;;;6.63;2.40;;;;;;;;;;5381446;26;20001;-70
2024/04/10 07:45:30;;;;;;;8.68;2.00;;;;;;;;;;5376585;26;20006;-69
2024/04/10 07:47:56;;;;;;;9.88;2.42;;;;;;;;;;5384151;26;20003;-69
2024/04/10 07:50:22;;;;;;;9.27;2.10;;;537.70;1868.80;;;;;;5376974;26;20000;-70
2024/04/10 07:52:48;;;;;;;12.05;2.00;;;512.90;1817.60;;;;;;5381931;26;20015;-69
2024/04/10 07:55:13;;;;;;;12.00;2.10;;;537.60;1843.20;;;;;;5375318;26;20640;-69
2024/04/10 07:57:39;;;;;;;5.45;1.90;;;537.90;1894.40;;;;;;5376221;26;20000;-70
2024/04/10 08:00:08;;;;;;;10.57;2.08;;;537.90;1868.80;;;;;;5384915;26;20007;-70
2024/04/10 08:02:35;;;;;;;9.02;2.17;;;538.00;1843.20;;;;;;5375775;26;20470;-70
2024/04/10 08:05:01;;;;;;;6.72;1.85;;;538.20;1843.20;;;;;;5394623;26;20007;-72
2024/04/10 08:07:26;;;;;;;8.77;1.88;;;538.50;1843.20;;;;;;5384711;26;20057;-70
2024/04/10 08:09:52;;;;;;;5.82;1.63;;;538.50;1817.60;;;;;;5375332;26;20000;-69
2024/04/10 08:12:18;;;;;;;6.22;2.15;;;563.20;1843.20;;;;;;5380604;26;20000;-70
2024/04/10 08:14:43;;;;;;;8.30;1.90;;;563.20;1817.60;;;;;;5375469;26;20000;-70
2024/04/10 08:17:10;;;;;;;8.25;2.15;;;563.30;1817.60;;;;;;5375017;26;20004;-69
2024/04/10 08:19:36;;;;;;;12.20;2.20;;;563.40;1817.60;;;;;;5374949;26;20343;-69
2024/04/10 08:22:01;;;;;;;9.23;1.70;;;563.30;1792.00;;;;;;5377349;26;20018;-72
2024/04/10 08:24:27;;;;;;;8.52;1.88;;;563.40;1766.40;;;;;;5388029;26;20011;-70
2024/04/10 08:27:01;;;;;;;8.30;1.70;;;563.60;1766.40;;;;;;5412651;26;19996;-72
2024/04/10 08:29:27;;;;;;;8.48;1.55;;;564.00;1792.00;;;;;;5412780;26;20007;-70
2024/04/10 08:31:53;;;;;;;7.05;2.00;;;564.00;1740.80;;;;;;5410926;26;19999;-70
2024/04/10 08:34:18;;;;;;;8.20;1.90;;;563.90;2099.20;;;;;;5391313;26;20000;-70
2024/04/10 08:36:44;;;;;;;9.02;2.13;;;563.80;1766.40;;;;;;5380028;26;19996;-71
2024/04/10 08:39:10;;;;;;;11.40;2.35;;;563.80;1766.40;;;;;;5379161;26;20423;-71
2024/04/10 08:41:39;;;;;;;10.57;2.05;;;563.70;1766.40;;;;;;5392967;26;20010;-71
2024/04/10 08:44:06;;;;;;;7.43;1.90;;;564.10;1740.80;;;;;;5387699;26;20008;-69
2024/04/10 08:46:42;;;;;;;9.38;1.95;;;564.00;1715.20;;;;;;5407571;26;20015;-71
2024/04/10 08:49:09;;;;;;;6.95;1.80;;;588.90;1689.60;;;;;;5386217;26;20038;-69
2024/04/10 08:51:39;;;;;;;8.48;2.42;;;589.00;1689.60;;;;;;5415297;26;20003;-71
2024/04/10 08:54:06;;;;;;;17.23;2.17;;;589.00;1689.60;;;;;;5393025;26;20073;-70
2024/04/10 08:56:32;;;;;;;8.68;1.63;;;589.10;1664.00;;;;;;5378948;26;20006;-70
2024/04/10 08:58:57;;;;;;;3.95;1.83;;;589.30;1664.00;;;;;;5378823;26;20012;-69
2024/04/10 09:01:36;;;;;;;7.95;1.90;;;589.40;1664.00;;;;;;5378207;26;20508;-71
2024/04/10 09:04:08;;;;;;;9.07;1.73;;;589.30;1664.00;;;;;;5387061;26;20011;-72
2024/04/10 09:06:35;;;;;;;5.25;1.60;;;589.40;1689.60;;;;;;5381854;26;20393;-72
2024/04/10 09:09:06;;;;;;;9.13;1.70;;;589.70;1664.00;;;;;;5391568;26;20000;-71
2024/04/10 09:11:31;;;;;;;7.78;2.15;;;614.50;1612.80;;;;;;5406161;26;20505;-71
2024/04/10 09:14:04;;;;;;;12.30;1.80;;;614.60;1612.80;;;;;;5416529;26;20030;-71
2024/04/10 09:16:31;;;;;;;8.82;1.80;;;614.60;1612.80;;;;;;5416875;26;20423;-71
2024/04/10 09:19:16;;;;;;;8.35;1.60;;;614.70;1587.20;;;;;;5418732;26;20000;-73
2024/04/10 09:21:56;;;;;;;8.90;1.75;;;614.90;1587.20;;;;;;5419333;26;20012;-73
2024/04/10 09:24:29;;;;;;;10.07;1.85;;;614.70;1587.20;;;;;;5417715;26;19999;-71
2024/04/10 09:26:56;;;;;;;7.05;1.70;;;614.70;1587.20;;;;;;5407275;26;20015;-71
2024/04/10 09:29:28;;;;;;;8.48;1.60;;;614.70;1587.20;;;;;;5384990;26;20019;-71
2024/04/10 09:31:58;;;;;;;10.50;2.00;;;615.00;1561.60;;;;;;5417345;26;20342;-72
2024/04/10 09:34:25;;;;;;;8.77;1.80;;;615.20;1561.60;;;;;;5415379;26;20037;-72
2024/04/10 09:36:51;;;;;;;11.40;1.65;;;640.10;1561.60;;;;;;5417180;26;20082;-71
2024/04/10 09:39:22;;;;;;;7.97;1.50;;;640.10;1536.00;;;;;;5417367;26;20491;-71
2024/04/10 09:41:54;;;;;;;4.97;1.60;;;640.10;1536.00;;;;;;5416758;26;19995;-71
2024/04/10 09:44:22;;;;;;;8.18;1.67;;;640.20;1510.40;;;;;;5416693;26;20000;-71
2024/04/10 09:46:56;;;;;;;18.58;2.22;;;640.30;1510.40;;;;;;5384364;26;19996;-71
2024/04/10 09:49:34;;;;;;;16.60;2.25;;;640.50;1484.80;;;;;;5407995;26;20033;-72
2024/04/10 09:52:01;;;;;;;12.27;1.60;;;640.50;1510.40;;;;;;5387735;26;20323;-71
2024/04/10 09:54:28;;;;;;;7.97;1.75;;;640.50;1484.80;;;;;;5394411;26;20051;-70
2024/04/10 09:56:56;;;;;;;5.47;1.50;;;640.30;1510.40;;;;;;5381171;26;20011;-69
2024/04/10 09:59:22;;;;;;;9.60;1.50;;;640.40;1510.40;;;;;;5382000;26;20059;-71
2024/04/10 10:01:48;;;;;;;8.63;1.95;;;640.50;1484.80;;;;;;5383296;26;20137;-69
2024/04/10 10:04:14;;;;;;;10.07;1.80;;;640.50;1484.80;;;;;;5385408;26;20457;-70
2024/04/10 10:06:39;;;;;;;15.35;2.08;;;640.10;1484.80;;;;;;5389194;26;19997;-70
2024/04/10 10:09:06;;;;;;;7.13;1.48;;;640.10;1484.80;;;;;;5405195;26;20319;-70
2024/04/10 10:11:32;;;;;;;7.43;1.73;;;640.00;1510.40;;;;;;5385740;26;20072;-71
2024/04/10 10:13:59;;;;;;;8.38;1.42;;;640.20;1484.80;;;;;;5379984;26;20442;-69
2024/04/10 10:16:25;;;;;;;12.82;1.83;;;640.10;1484.80;;;;;;5379618;26;21158;-70
2024/04/10 10:19:04;;;;;;;5.55;1.75;;;640.00;1510.40;;;;;;5384626;26;20431;-69
2024/04/10 10:21:31;;;;;;;5.88;1.50;;;640.00;1484.80;;;;;;5385454;26;20010;-70
2024/04/10 10:24:07;;;;;;;12.52;2.00;;;615.20;1510.40;;;;;;5389089;26;20015;-70
2024/04/10 10:26:32;;;;;;;9.18;1.90;;;615.20;1536.00;;;;;;5382536;26;20015;-68
2024/04/10 10:29:05;;;;;;;8.82;1.60;;;615.20;1510.40;;;;;;5375681;26;20000;-68
2024/04/10 10:31:31;;;;;;;6.93;1.60;;;615.00;1536.00;;;;;;5377396;26;20431;-68
2024/04/10 10:34:04;;;;;;;11.52;1.55;;;615.00;1536.00;;;;;;5387248;26;20003;-70
2024/04/10 10:36:34;;;;;;;10.57;1.80;;;614.90;1536.00;;;;;;5392785;26;20000;-69
2024/04/10 10:39:05;;;;;;;12.60;1.63;;;615.10;1536.00;;;;;;5398408;26;20372;-70
2024/04/10 10:41:31;;;;;;;16.08;1.65;;;615.10;1510.40;;;;;;5376946;26;20004;-69
2024/04/10 10:44:00;;;;;;;13.27;1.92;;;615.20;1536.00;;;;;;5394524;26;20789;-71
2024/04/10 10:46:27;;;;;;;5.25;1.50;;;615.20;1510.40;;;;;;5413275;26;19999;-71
2024/04/10 10:48:53;;;;;;;7.50;1.50;;;615.30;1510.40;;;;;;5413399;26;20007;-70
2024/04/10 10:51:19;;;;;;;12.15;1.65;;;615.30;1510.40;;;;;;5408957;26;19999;-70
2024/04/10 10:53:47;;;;;;;14.38;2.03;;;615.30;1510.40;;;;;;5410301;26;20003;-69
2024/04/10 10:56:25;;;;;;;8.63;1.58;;;615.30;1510.40;;;;;;5382922;26;20004;-70
2024/04/10 10:59:06;;;;;;;5.60;1.40;;;640.10;1536.00;;;;;;5373973;26;20081;-69
2024/04/10 11:01:34;;;;;;;9.75;1.60;;;640.00;1536.00;;;;;;5375228;26;20032;-69
2024/04/10 11:04:14;;;;;;;10.35;1.52;;;640.00;1510.40;;;;;;5375226;26;20018;-70
2024/04/10 11:06:40;;;;;;;6.30;1.50;;;615.30;1510.40;;;;;;5375937;26;20454;-70
2024/04/10 11:09:18;;;;;;;9.48;1.70;;;640.30;1510.40;;;;;;5376501;26;20075;-70
2024/04/10 11:11:44;;;;;;;6.25;1.65;;;640.20;1484.80;;;;;;5375889;26;20452;-68
2024/04/10 11:14:22;;;;;;;8.75;1.52;;;640.20;1510.40;;;;;;5387764;26;20014;-71
2024/04/10 11:16:58;;;;;;;12.02;2.08;;;640.50;1484.80;;;;;;5384179;26;20004;-70
2024/04/10 11:19:23;;;;;;;10.32;1.70;;;640.50;1484.80;;;;;;5390432;26;20077;-69
2024/04/10 11:21:49;;;;;;;7.47;1.50;;;640.50;1484.80;;;;;;5376621;26;20012;-71
2024/04/10 11:24:15;;;;;;;7.57;1.80;;;640.50;1484.80;;;;;;5404038;26;20004;-71
2024/04/10 11:26:42;;;;;;;8.10;1.50;;;640.60;1484.80;;;;;;5411988;26;20008;-71
2024/04/10 11:29:08;;;;;;;13.55;1.55;;;640.40;1484.80;;;;;;5410558;26;20022;-70
2024/04/10 11:31:34;;;;;;;7.60;1.60;;;640.60;1484.80;;;;;;5391243;26;20004;-72
2024/04/10 11:34:01;;;;;;;15.32;1.60;;;640.70;1459.20;;;;;;5378256;26;20000;-70
2024/04/10 11:36:27;;;;;;;12.73;1.70;;;640.80;1459.20;;;;;;5378241;26;20000;-71
2024/04/10 11:38:53;;;;;;;15.77;1.55;;;640.60;1484.80;;;;;;5412494;26;19995;-70
2024/04/10 11:41:21;;;;;;;14.25;2.28;;;640.50;1484.80;;;;;;5413720;26;20042;-69
2024/04/10 11:43:47;;;;;;;13.73;1.70;;;640.60;1459.20;;;;;;5413104;26;20807;-71
2024/04/10 11:46:13;;;;;;;7.32;1.25;;;640.60;1484.80;;;;;;5412350;26;20015;-71
2024/04/10 11:48:38;;;;;;;11.70;1.83;;;640.70;1459.20;;;;;;5400460;26;20028;-69
2024/04/10 11:51:05;;;;;;;6.82;1.50;;;640.70;1484.80;;;;;;5378039;26;20007;-70
2024/04/10 11:53:32;;;;;;;15.55;1.80;;;640.80;1484.80;;;;;;5379877;26;20069;-69
2024/04/10 11:55:58;;;;;;;9.18;1.35;;;640.90;1459.20;;;;;;5388657;26;20057;-70
2024/04/10 11:58:24;;;;;;;9.65;1.70;;;640.80;1484.80;;;;;;5378259;26;20439;-69
2024/04/10 12:00:51;;;;;;;14.13;1.60;;;640.80;1484.80;;;;;;5378052;26;20040;-69
2024/04/10 12:03:17;;;;;;;12.88;1.50;;;640.80;1459.20;;;;;;5392103;26;20004;-72
2024/04/10 12:05:46;;;;;;;11.48;1.70;;;665.70;1484.80;;;;;;5377875;26;20047;-69
2024/04/10 12:08:12;;;;;;;12.23;1.70;;;665.60;1459.20;;;;;;5377747;26;19997;-69
2024/04/10 12:10:40;;;;;;;15.15;2.00;;;665.60;1484.80;;;;;;5378417;26;20557;-70
2024/04/10 12:13:07;;;;;;;9.15;1.90;;;665.60;1459.20;;;;;;5389228;26;20007;-70
2024/04/10 12:15:33;;;;;;;9.48;2.17;;;640.80;1459.20;;;;;;5405793;26;20000;-70
2024/04/10 12:17:59;;;;;;;15.90;1.55;;;640.90;1459.20;;;;;;5377784;26;19996;-69
2024/04/10 12:20:24;;;;;;;8.95;1.60;;;640.70;1459.20;;;;;;5381178;26;20014;-70
2024/04/10 12:22:50;;;;;;;6.07;1.70;;;640.80;1459.20;;;;;;5378509;26;20000;-73
2024/04/10 12:25:17;;;;;;;14.02;2.08;;;640.80;1459.20;;;;;;5402855;26;20007;-71
2024/04/10 12:27:48;;;;;;;11.95;1.75;;;640.50;1459.20;;;;;;5408545;26;20003;-72
2024/04/10 12:30:14;;;;;;;12.75;1.90;;;640.50;1484.80;;;;;;5402057;26;20000;-68
2024/04/10 12:32:39;;;;;;;11.95;1.70;;;640.60;1484.80;;;;;;5392895;26;20338;-71
2024/04/10 12:38:07;;;;;;;10.63;1.83;;;640.30;1510.40;;;;;;5377552;26;20548;-70
2024/04/10 12:40:42;;;;;;;11.75;1.50;;;640.40;1510.40;;;;;;5404059;26;20068;-70
2024/04/10 12:43:09;;;;;;;14.63;1.98;;;640.40;1510.40;;;;;;5375619;26;20809;-71
2024/04/10 12:45:35;;;;;;;9.27;1.38;;;640.50;1510.40;;;;;;5376852;26;20012;-70
2024/04/10 12:48:05;;;;;;;20.05;1.70;;;640.20;1510.40;;;;;;5383220;26;20064;-70
2024/04/10 12:50:31;;;;;;;10.73;1.33;;;640.30;1510.40;;;;;;5389520;26;20006;-70